SAP weather

Ramón Villeda Morales International Airport
San Pedro Sula, Cortes, Honduras

Public forecast

Using degrees Celsius for public forecast. Weather courtesy of forecast.io.

METAR (pilot weather report)

Retrieved 2019/05/20 18:00 UTC (9 minutes ago):

MHLM 201800Z 12004KT 9999 SCT024 36/23 Q1009 A2980 NOSIG

TAF (pilot weather forecast)

Retrieved 2019/05/20 18:36 UTC (0 seconds ago):

TAF MHLM 201625Z 2018/2118 03008KT 9999 FEW026 TX36/2019Z TN25/2112Z BECMG 2021/2023 FEW026TCU SCT080 BECMG 2103/2105 00000KT 8000 VCSH BECMG 2112/2114 9999 NSW FEW026